首页
METAR-TAF:

METAR-TAF

机场 :

曼谷, 泰国

廊曼国际机场

纬度: 13-54-45N, 经度: 100-36-24E, 海拔: 4米

当前天气观测

该预报发布于54分钟前的02:30 UTC
风速3节,风向北转东北,在北转西北之间变化
温度 27°C
湿度 58%
气压 1012 hPa
能見度: 8000
少量云层高于2000英尺

METAR: VTBD 200230Z 03003KT 330V080 8000 FEW020 27/18 Q1012 NOSIG

时间: 10:24 (03:24 UTC)

预报

该预报发布于4小时和24分钟前的23:00 UTC
预报有效从20日的 00点(UTC)到 21日的 06点(UTC)
风速5节,风向
能见度10公里或以上
1500米以下无云,无积雨云
成为
从 20日的 10点(UTC)到 20日的 12点(UTC)
风速5节,风向
能见度10公里或以上
少量云层高于3000英尺
成为
从 20日的 18点(UTC)到 20日的 20点(UTC)
风速5节,风向东转东南

TAF: VTBD 192300Z 2000/2106 09005KT CAVOK BECMG 2010/2012 35005KT 9999 FEW030 BECMG 2018/2020 12005KT

超过4000个机场的气象观测和天气预报(METAR&TAF报告)。

可查询的气象台以黄色和红色小点在地图上表示。

将鼠标移到小点上方,可查看气象台名称。

然后点击查看天气观测和预报。

如需切换地图:点击带黑十字的绿色按钮放大地图;点击带横线的绿色按钮缩小地图;或者点击绿色箭头查看邻近地区的地图。


METAR-TAF: